Time;durP1;ratioP1;P1;durP2;ratioP2;P2;SDS_P1;SDS_P2;PMS_P1;PMS_P2;Temp;Humidity;BMP_temperature;BMP_pressure;BME280_temperature;BME280_humidity;BME280_pressure;Samples;Min_cycle;Max_cycle;Signal;HPM_P1;HPM_P2
2021/03/08 00:02:13;;;;;;;;;;;;;;;3.27;100.00;99757.63;5091380;28;19930;-81
2021/03/08 00:04:40;;;;;;;;;;;;;;;3.27;100.00;99757.63;5091425;28;19931;-81
2021/03/08 00:07:06;;;;;;;;;;;;;;;3.25;100.00;99753.63;5091237;28;19930;-81
2021/03/08 00:09:33;;;;;;;;;;;;;;;3.24;100.00;99749.25;5091179;28;19931;-81
2021/03/08 00:12:00;;;;;;;;;;;;;;;3.28;100.00;99752.91;5058133;28;19970;-81
2021/03/08 00:14:26;;;;;;;;;;;;;;;3.30;100.00;99758.88;5091447;28;20070;-81
2021/03/08 00:16:53;;;;;;;;;;;;;;;3.28;100.00;99753.72;5091707;28;19990;-81
2021/03/08 00:19:19;;;;;;;;;;;;;;;3.31;100.00;99758.50;5092410;28;19931;-80
2021/03/08 00:21:47;;;;;;;;;;;;;;;3.29;100.00;99757.25;5091401;28;20007;-81
2021/03/08 00:24:14;;;;;;;;;;;;;;;3.26;100.00;99752.44;5091518;28;19967;-81
2021/03/08 00:26:41;;;;;;;;;;;;;;;3.20;100.00;99745.59;5092566;28;19924;-81
2021/03/08 00:29:13;;;;;;;;;;;;;;;3.19;100.00;99766.09;5058716;28;19931;-81
2021/03/08 00:31:39;;;;;;;;;;;;;;;3.14;100.00;99750.59;5057333;28;19928;-81
2021/03/08 00:34:06;;;;;;;;;;;;;;;3.17;100.00;99752.66;5074498;28;20014;-81
2021/03/08 00:36:33;;;;;;;;;;;;;;;3.19;100.00;99749.53;5074335;28;19935;-81
2021/03/08 00:38:59;;;;;;;;;;;;;;;3.25;100.00;99742.56;5074334;28;19924;-81
2021/03/08 00:41:26;;;;;;;;;;;;;;;3.21;100.00;99747.22;5091324;28;19924;-81
2021/03/08 00:43:52;;;;;;;;;;;;;;;3.19;100.00;99744.81;5054367;28;19931;-81
2021/03/08 00:46:19;;;;;;;;;;;;;;;3.16;100.00;99744.72;5071054;28;19976;-81
2021/03/08 00:48:45;;;;;;;;;;;;;;;3.20;100.00;99745.59;5068866;28;19938;-81
2021/03/08 00:51:12;;;;;;;;;;;;;;;3.19;100.00;99744.81;5091258;28;20363;-81
2021/03/08 00:53:39;;;;;;;;;;;;;;;3.15;100.00;99740.38;5090942;28;19930;-81
2021/03/08 00:56:06;;;;;;;;;;;;;;;3.20;100.00;99740.88;5074123;28;19924;-81
2021/03/08 00:58:32;;;;;;;;;;;;;;;3.29;100.00;99748.97;5075327;28;20185;-81
2021/03/08 01:01:00;;;;;;;;;;;;;;;3.21;100.00;99747.22;5112301;27;19924;-82
2021/03/08 01:03:26;;;;;;;;;;;;;;;3.36;100.00;99738.09;5094710;28;19935;-81
2021/03/08 01:05:53;;;;;;;;;;;;;;;3.38;100.00;99747.63;5112789;28;19935;-81
2021/03/08 01:08:31;;;;;;;;;;;;;;;3.43;100.00;99744.59;5091513;28;19924;-81
2021/03/08 01:10:58;;;;;;;;;;;;;;;3.49;100.00;99731.28;5075790;28;20445;-81
2021/03/08 01:13:31;;;;;;;;;;;;;;;3.54;100.00;99739.31;5081622;28;19965;-81
2021/03/08 01:15:58;;;;;;;;;;;;;;;3.43;100.00;99743.78;5101703;28;19934;-82
2021/03/08 01:18:24;;;;;;;;;;;;;;;3.17;100.00;99743.56;5112100;28;19981;-82
2021/03/08 01:20:51;;;;;;;;;;;;;;;2.84;100.00;99741.19;5112391;28;19924;-81
2021/03/08 01:23:18;;;;;;;;;;;;;;;2.66;100.00;99744.63;5097419;28;19928;-81
2021/03/08 01:25:44;;;;;;;;;;;;;;;2.77;100.00;99745.72;5114777;28;19924;-81
2021/03/08 01:28:11;;;;;;;;;;;;;;;2.69;100.00;99741.97;5114775;28;20433;-82
2021/03/08 01:30:39;;;;;;;;;;;;;;;2.74;100.00;99738.16;5097649;28;19967;-82
2021/03/08 01:33:06;;;;;;;;;;;;;;;2.75;100.00;99740.56;5090820;28;19928;-82
2021/03/08 01:35:33;;;;;;;;;;;;;;;2.81;100.00;99738.31;5114685;28;19997;-81
2021/03/08 01:38:03;;;;;;;;;;;;;;;2.81;100.00;99728.09;5115752;28;19931;-81
2021/03/08 01:40:31;;;;;;;;;;;;;;;2.91;100.00;99732.25;5099363;28;19931;-81
2021/03/08 01:42:58;;;;;;;;;;;;;;;2.95;100.00;99733.16;5115409;28;19930;-82
2021/03/08 01:45:24;;;;;;;;;;;;;;;2.92;100.00;99712.56;5100839;28;20004;-82
2021/03/08 01:47:52;;;;;;;;;;;;;;;2.93;100.00;99718.91;5097663;28;19924;-82
2021/03/08 01:50:18;;;;;;;;;;;;;;;2.98;100.00;99711.16;5097551;28;19927;-82
2021/03/08 01:52:45;;;;;;;;;;;;;;;2.91;100.00;99713.75;5097515;28;20294;-81
2021/03/08 01:55:12;;;;;;;;;;;;;;;2.98;100.00;99715.88;5115253;28;19950;-82
2021/03/08 01:57:39;;;;;;;;;;;;;;;3.14;100.00;99709.19;5114909;28;19958;-82
2021/03/08 02:00:15;;;;;;;;;;;;;;;3.17;100.00;99710.41;5106003;28;19924;-82
2021/03/08 02:02:42;;;;;;;;;;;;;;;3.16;100.00;99706.06;5115373;28;19970;-82
2021/03/08 02:05:12;;;;;;;;;;;;;;;3.16;100.00;99706.06;5097021;28;20026;-82
2021/03/08 02:07:38;;;;;;;;;;;;;;;3.17;100.00;99707.66;5115038;28;19928;-82
2021/03/08 02:10:06;;;;;;;;;;;;;;;3.29;100.00;99704.78;5076527;28;19924;-82
2021/03/08 02:12:43;;;;;;;;;;;;;;;3.33;100.00;99706.47;5097521;28;19993;-82
2021/03/08 02:15:28;;;;;;;;;;;;;;;3.47;100.00;99701.25;5115014;28;19931;-82
2021/03/08 02:18:03;;;;;;;;;;;;;;;3.54;100.00;99703.38;5113849;28;19931;-82
2021/03/08 02:20:33;;;;;;;;;;;;;;;3.60;100.00;99699.19;5096959;28;19923;-83
2021/03/08 02:23:03;;;;;;;;;;;;;;;3.55;100.00;99691.97;5080228;28;19930;-82
2021/03/08 02:25:36;;;;;;;;;;;;;;;3.65;100.00;99690.56;5086218;28;19949;-82
2021/03/08 02:28:02;;;;;;;;;;;;;;;3.71;100.00;99689.16;5102948;28;20382;-82
2021/03/08 02:30:51;;;;;;;;;;;;;;;3.86;100.00;99681.94;5084452;28;19924;-82
2021/03/08 02:33:20;;;;;;;;;;;;;;;3.69;100.00;99669.34;5114350;28;19928;-81
2021/03/08 02:35:50;;;;;;;;;;;;;;;3.64;100.00;99677.94;5114717;28;19946;-81
2021/03/08 02:38:18;;;;;;;;;;;;;;;3.69;100.00;99669.34;5090002;28;20417;-82
2021/03/08 02:40:46;;;;;;;;;;;;;;;3.69;100.00;99663.84;5110809;28;19990;-82
2021/03/08 02:43:27;;;;;;;;;;;;;;;3.74;100.00;99658.03;5096398;28;19927;-82
2021/03/08 02:45:55;;;;;;;;;;;;;;;3.64;100.00;99655.81;5114597;28;19924;-82
2021/03/08 02:48:23;;;;;;;;;;;;;;;3.67;100.00;99660.63;5062973;28;19928;-82
2021/03/08 02:50:52;;;;;;;;;;;;;;;3.66;100.00;99654.28;5098015;28;20006;-82
2021/03/08 02:53:19;;;;;;;;;;;;;;;3.63;100.00;99643.19;5096569;28;19967;-82
2021/03/08 02:56:00;;;;;;;;;;;;;;;3.58;100.00;99646.22;5098459;28;19924;-81
2021/03/08 02:58:28;;;;;;;;;;;;;;;3.65;100.00;99646.34;5114002;28;19929;-81
2021/03/08 03:01:05;;;;;;;;;;;;;;;3.75;100.00;99643.03;5112078;28;19923;-82
2021/03/08 03:03:34;;;;;;;;;;;;;;;3.70;100.00;99633.06;5104493;28;20004;-82
2021/03/08 03:06:01;;;;;;;;;;;;;;;3.77;100.00;99637.13;5093867;28;19932;-82
2021/03/08 03:08:28;;;;;;;;;;;;;;;3.74;100.00;99633.94;5109654;28;19924;-82
2021/03/08 03:10:55;;;;;;;;;;;;;;;3.66;100.00;99634.16;5109126;28;20424;-82
2021/03/08 03:13:23;;;;;;;;;;;;;;;3.75;100.00;99629.22;5058864;28;19928;-82
2021/03/08 03:15:50;;;;;;;;;;;;;;;3.69;100.00;99633.44;5076770;28;19928;-82
2021/03/08 03:18:18;;;;;;;;;;;;;;;3.60;100.00;99635.63;5114244;28;19946;-82
2021/03/08 03:20:46;;;;;;;;;;;;;;;3.55;100.00;99630.38;5096098;28;20019;-82
2021/03/08 03:23:13;;;;;;;;;;;;;;;3.52;100.00;99626.38;5086764;27;19924;-81
2021/03/08 03:25:41;;;;;;;;;;;;;;;3.59;100.00;99625.69;5098890;27;19930;-81
2021/03/08 03:28:08;;;;;;;;;;;;;;;3.66;100.00;99620.34;5103310;28;19923;-82
2021/03/08 03:30:35;;;;;;;;;;;;;;;3.68;100.00;99620.78;5113718;28;19976;-82
2021/03/08 03:33:02;;;;;;;;;;;;;;;3.66;100.00;99618.34;5104320;28;19924;-81
2021/03/08 03:35:30;;;;;;;;;;;;;;;3.73;100.00;99620.47;5103206;28;20353;-82
2021/03/08 03:37:58;;;;;;;;;;;;;;;3.60;100.00;99619.81;5103283;28;20378;-82
2021/03/08 03:40:25;;;;;;;;;;;;;;;3.64;100.00;99609.66;5102656;28;19959;-82
2021/03/08 03:42:52;;;;;;;;;;;;;;;3.68;100.00;99610.50;5084920;28;20361;-81
2021/03/08 03:45:19;;;;;;;;;;;;;;;3.67;100.00;99608.13;5086132;28;19927;-82
2021/03/08 03:47:47;;;;;;;;;;;;;;;3.67;100.00;99610.88;5095368;28;19924;-82
2021/03/08 03:50:16;;;;;;;;;;;;;;;3.79;100.00;99607.16;5095805;28;19930;-82
2021/03/08 03:52:42;;;;;;;;;;;;;;;3.70;100.00;99610.16;5078412;28;20397;-82
2021/03/08 03:55:10;;;;;;;;;;;;;;;3.76;100.00;99608.69;5113075;28;19928;-81
2021/03/08 03:57:39;;;;;;;;;;;;;;;3.68;100.00;99601.44;5113231;28;20445;-82
2021/03/08 04:00:07;;;;;;;;;;;;;;;3.71;100.00;99606.25;5085980;28;19927;-82
2021/03/08 04:02:38;;;;;;;;;;;;;;;3.78;100.00;99602.78;5095165;28;20393;-82
2021/03/08 04:05:05;;;;;;;;;;;;;;;3.81;100.00;99604.81;5095308;28;19951;-82
2021/03/08 04:07:38;;;;;;;;;;;;;;;3.74;100.00;99599.97;5091546;28;20022;-81
2021/03/08 04:10:05;;;;;;;;;;;;;;;3.76;100.00;99597.63;5112877;27;20439;-82
2021/03/08 04:12:34;;;;;;;;;;;;;;;3.84;100.00;99604.09;5103790;28;19924;-82
2021/03/08 04:15:03;;;;;;;;;;;;;;;3.86;100.00;99602.59;5113080;28;19924;-82
2021/03/08 04:17:33;;;;;;;;;;;;;;;3.86;100.00;99594.28;5094857;28;19924;-81
2021/03/08 04:20:01;;;;;;;;;;;;;;;3.76;100.00;99597.63;5094783;28;19924;-82
2021/03/08 04:22:32;;;;;;;;;;;;;;;3.94;100.00;99603.50;5078030;28;20406;-81
2021/03/08 04:24:59;;;;;;;;;;;;;;;3.83;100.00;99602.50;5077985;28;19935;-81
2021/03/08 04:27:27;;;;;;;;;;;;;;;3.86;100.00;99594.28;5094885;28;19924;-81
2021/03/08 04:29:54;;;;;;;;;;;;;;;3.71;100.00;99600.72;5094838;28;19924;-82
2021/03/08 04:32:21;;;;;;;;;;;;;;;3.71;100.00;99600.72;5113188;28;19976;-82
2021/03/08 04:34:49;;;;;;;;;;;;;;;3.75;100.00;99601.56;5094989;28;19930;-81
2021/03/08 04:37:16;;;;;;;;;;;;;;;3.73;100.00;99595.59;5089409;28;19924;-82
2021/03/08 04:39:44;;;;;;;;;;;;;;;3.76;100.00;99592.09;5074567;28;20015;-82
2021/03/08 04:42:11;;;;;;;;;;;;;;;3.74;100.00;99594.44;5076143;28;19924;-82
2021/03/08 04:44:39;;;;;;;;;;;;;;;3.69;100.00;99591.97;5111861;28;19958;-81
2021/03/08 04:47:07;;;;;;;;;;;;;;;3.69;100.00;99592.78;5094560;28;19924;-81
2021/03/08 04:49:34;;;;;;;;;;;;;;;3.79;100.00;99585.06;5094616;28;19924;-81
2021/03/08 04:52:01;;;;;;;;;;;;;;;3.83;100.00;99600.53;5094896;28;20378;-81
2021/03/08 04:54:28;;;;;;;;;;;;;;;3.76;100.00;99600.38;5111375;28;19930;-82
2021/03/08 04:56:55;;;;;;;;;;;;;;;3.83;100.00;99605.25;5101701;28;20314;-81
2021/03/08 04:59:22;;;;;;;;;;;;;;;3.85;100.00;99595.44;5109286;28;19947;-82
2021/03/08 05:01:50;;;;;;;;;;;;;;;3.90;100.00;99600.66;5094214;28;19928;-82
2021/03/08 05:04:18;;;;;;;;;;;;;;;3.93;100.00;99605.47;5116476;28;19923;-81
2021/03/08 05:06:45;;;;;;;;;;;;;;;3.92;100.00;99601.13;5098140;28;19924;-82
2021/03/08 05:09:14;;;;;;;;;;;;;;;3.93;100.00;99602.69;5101665;28;20374;-82
2021/03/08 05:11:42;;;;;;;;;;;;;;;3.93;100.00;99590.84;5073738;28;19924;-82
2021/03/08 05:14:11;;;;;;;;;;;;;;;3.91;100.00;99588.44;5115953;28;19928;-82
2021/03/08 05:16:44;;;;;;;;;;;;;;;3.82;100.00;99585.09;5116163;28;20442;-82
2021/03/08 05:19:12;;;;;;;;;;;;;;;3.84;100.00;99593.03;5097690;28;20401;-82
2021/03/08 05:21:39;;;;;;;;;;;;;;;3.89;100.00;99601.03;5097636;28;20423;-82
2021/03/08 05:24:06;;;;;;;;;;;;;;;3.76;100.00;99589.34;5097772;28;19985;-81
2021/03/08 05:26:34;;;;;;;;;;;;;;;3.74;100.00;99594.44;5055816;28;19931;-82
2021/03/08 05:29:01;;;;;;;;;;;;;;;3.92;100.00;99587.28;5080923;28;19924;-82
2021/03/08 05:31:30;;;;;;;;;;;;;;;3.93;100.00;99582.53;5080663;28;19932;-82
2021/03/08 05:33:58;;;;;;;;;;;;;;;4.01;100.00;99584.28;5080758;28;19924;-82
2021/03/08 05:36:26;;;;;;;;;;;;;;;4.01;100.00;99571.25;5115288;28;19928;-82
2021/03/08 05:38:53;;;;;;;;;;;;;;;4.22;100.00;99579.13;5097718;28;20386;-82
2021/03/08 05:41:34;;;;;;;;;;;;;;;4.27;100.00;99584.34;5097087;28;20405;-82
2021/03/08 05:44:04;;;;;;;;;;;;;;;4.31;100.00;99577.72;5089487;28;20006;-82
2021/03/08 05:46:31;;;;;;;;;;;;;;;4.39;100.00;99567.56;5082187;28;19959;-82
2021/03/08 05:48:57;;;;;;;;;;;;;;;4.44;100.00;99567.25;5097226;28;19924;-81
2021/03/08 05:51:42;;;;;;;;;;;;;;;4.35;100.00;99564.72;5062700;28;19924;-81
2021/03/08 05:54:18;;;;;;;;;;;;;;;4.41;100.00;99556.94;5115555;28;19927;-82
2021/03/08 05:57:01;;;;;;;;;;;;;;;4.30;100.00;99562.25;5066042;28;19952;-81
2021/03/08 05:59:31;;;;;;;;;;;;;;;4.39;100.00;99548.97;5114155;28;20023;-81
2021/03/08 06:02:01;;;;;;;;;;;;;;;4.20;100.00;99546.28;5080630;28;19927;-82
2021/03/08 06:04:46;;;;;;;;;;;;;;;4.06;100.00;99557.09;5097815;28;20050;-82
2021/03/08 06:07:15;;;;;;;;;;;;;;;4.20;100.00;99560.13;5082124;28;19951;-82
2021/03/08 06:09:51;;;;;;;;;;;;;;;4.08;100.00;99549.25;5115314;28;19923;-82
2021/03/08 06:12:22;;;;;;;;;;;;;;;4.27;100.00;99548.38;5115295;28;19923;-81
2021/03/08 06:14:49;;;;;;;;;;;;;;;4.16;100.00;99550.97;5097628;28;19927;-82
2021/03/08 06:17:17;;;;;;;;;;;;;;;4.05;100.00;99549.19;5059554;28;19924;-82
2021/03/08 06:19:45;;;;;;;;;;;;;;;4.20;100.00;99571.19;5078861;28;19924;-82
2021/03/08 06:22:12;;;;;;;;;;;;;;;4.39;100.00;99548.97;5088066;28;20339;-82
2021/03/08 06:24:43;;;;;;;;;;;;;;;4.49;100.00;99548.34;5097126;28;19981;-82
2021/03/08 06:27:14;;;;;;;;;;;;;;;4.59;100.00;99542.19;5061894;28;19931;-81
2021/03/08 06:29:41;;;;;;;;;;;;;;;4.53;100.00;99548.44;5097027;28;20006;-81
2021/03/08 06:32:08;;;;;;;;;;;;;;;4.52;100.00;99544.03;5094632;28;20401;-82
2021/03/08 06:34:35;;;;;;;;;;;;;;;4.58;100.00;99548.09;5094500;28;19984;-81
2021/03/08 06:37:03;;;;;;;;;;;;;;;4.64;100.00;99538.28;5085535;28;19973;-82
2021/03/08 06:39:34;;;;;;;;;;;;;;;4.64;100.00;99521.69;5060806;28;19928;-81
2021/03/08 06:42:01;;;;;;;;;;;;;;;4.63;100.00;99537.50;5092273;28;19939;-81
2021/03/08 06:44:27;;;;;;;;;;;;;;;4.69;100.00;99547.09;5107313;28;20010;-82
2021/03/08 06:46:54;;;;;;;;;;;;;;;4.72;100.00;99540.00;5080516;28;19928;-81
2021/03/08 06:49:21;;;;;;;;;;;;;;;4.74;100.00;99544.00;5115152;28;19924;-83
2021/03/08 06:52:08;;;;;;;;;;;;;;;4.67;100.00;99532.00;5095304;28;19924;-80
2021/03/08 06:54:39;;;;;;;;;;;;;;;4.62;100.00;99535.13;5087142;28;19927;-81
2021/03/08 06:57:21;;;;;;;;;;;;;;;4.55;100.00;99544.09;5091201;28;19928;-79
2021/03/08 06:59:51;;;;;;;;;;;;;;;4.46;100.00;99549.09;5072318;28;19924;-80
2021/03/08 07:02:18;;;;;;;;;;;;;;;4.41;100.00;99541.09;5073735;28;19931;-79
2021/03/08 07:04:45;;;;;;;;;;;;;;;4.47;100.00;99547.91;5106456;28;20065;-80
2021/03/08 07:07:13;;;;;;;;;;;;;;;4.55;100.00;99546.88;5108255;28;19931;-79
2021/03/08 07:09:46;;;;;;;;;;;;;;;4.60;100.00;99552.09;5100841;28;20558;-79
2021/03/08 07:12:14;;;;;;;;;;;;;;;4.59;100.00;99546.94;5109243;28;19928;-80
2021/03/08 07:14:41;;;;;;;;;;;;;;;4.60;100.00;99554.88;5109358;28;20271;-80
2021/03/08 07:17:26;;;;;;;;;;;;;;;4.72;100.00;99557.44;5110286;28;19958;-80
2021/03/08 07:19:53;;;;;;;;;;;;;;;4.67;100.00;99549.44;5108404;28;19930;-79
2021/03/08 07:22:35;;;;;;;;;;;;;;;4.57;100.00;99555.63;5109170;28;20010;-79
2021/03/08 07:25:04;;;;;;;;;;;;;;;4.52;100.00;99564.22;5102605;28;19928;-79
2021/03/08 07:27:40;;;;;;;;;;;;;;;4.56;100.00;99554.00;5108842;28;19977;-79
2021/03/08 07:30:07;;;;;;;;;;;;;;;4.57;100.00;99558.38;5090097;28;19946;-80
2021/03/08 07:32:34;;;;;;;;;;;;;;;4.61;100.00;99559.22;5108824;28;19972;-81
2021/03/08 07:35:01;;;;;;;;;;;;;;;4.65;100.00;99567.59;5091027;28;19946;-81
2021/03/08 07:37:28;;;;;;;;;;;;;;;4.63;100.00;99556.88;5076167;28;19950;-81
2021/03/08 07:39:55;;;;;;;;;;;;;;;4.60;100.00;99570.66;5090657;28;19924;-79
2021/03/08 07:42:22;;;;;;;;;;;;;;;4.55;100.00;99574.56;5100900;28;19928;-79
2021/03/08 07:44:54;;;;;;;;;;;;;;;4.57;100.00;99563.91;5110424;28;19954;-78
2021/03/08 07:47:21;;;;;;;;;;;;;;;4.52;100.00;99578.06;5093202;28;20401;-80
2021/03/08 07:49:51;;;;;;;;;;;;;;;4.51;100.00;99572.91;5094625;28;19924;-79
2021/03/08 07:52:18;;;;;;;;;;;;;;;4.55;100.00;99582.03;5113504;28;19928;-80
2021/03/08 07:54:54;;;;;;;;;;;;;;;4.51;100.00;99581.19;5097308;28;19947;-79
2021/03/08 07:57:22;;;;;;;;;;;;;;;4.52;100.00;99580.81;5094805;28;19924;-80
2021/03/08 07:59:50;;;;;;;;;;;;;;;4.53;100.00;99587.94;5096815;28;19924;-80
2021/03/08 08:02:17;;;;;;;;;;;;;;;4.53;100.00;99587.94;5103387;28;19924;-79
2021/03/08 08:05:01;;;;;;;;;;;;;;;4.58;100.00;99593.19;5113119;27;20318;-80
2021/03/08 08:07:31;;;;;;;;;;;;;;;4.61;100.00;99584.13;5103463;28;20374;-80
2021/03/08 08:10:03;;;;;;;;;;;;;;;4.56;100.00;99581.66;5111880;28;19924;-79
2021/03/08 08:12:33;;;;;;;;;;;;;;;4.55;100.00;99588.38;5095220;28;19973;-79
2021/03/08 08:15:09;;;;;;;;;;;;;;;4.60;100.00;99592.81;5111764;28;20212;-79
2021/03/08 08:17:36;;;;;;;;;;;;;;;4.65;100.00;99573.91;5111786;28;19930;-80
2021/03/08 08:20:04;;;;;;;;;;;;;;;4.64;100.00;99594.47;5113264;28;20011;-80
2021/03/08 08:22:32;;;;;;;;;;;;;;;4.63;100.00;99587.34;5112782;28;20072;-79
2021/03/08 08:25:01;;;;;;;;;;;;;;;4.62;100.00;99591.25;5111650;28;19971;-81
2021/03/08 08:27:32;;;;;;;;;;;;;;;4.70;100.00;99587.44;5103440;28;20015;-80
2021/03/08 08:30:02;;;;;;;;;;;;;;;4.73;100.00;99583.13;5095647;28;19931;-81
2021/03/08 08:32:55;;;;;;;;;;;;;;;4.85;100.00;99583.72;5070766;28;20345;-80
2021/03/08 08:35:29;;;;;;;;;;;;;;;4.85;100.00;99580.94;5087693;28;19930;-80
2021/03/08 08:38:07;;;;;;;;;;;;;;;4.86;100.00;99579.75;5115711;28;20381;-84
2021/03/08 08:40:34;;;;;;;;;;;;;;;4.83;100.00;99580.50;5085675;28;19931;-83
2021/03/08 08:43:16;;;;;;;;;;;;;;;4.89;100.00;99595.63;5098979;28;19923;-83
2021/03/08 08:45:50;;;;;;;;;;;;;;;4.98;100.00;99587.06;5081767;28;19924;-83
2021/03/08 08:48:17;;;;;;;;;;;;;;;5.00;100.00;99585.50;5082105;28;20323;-83
2021/03/08 08:50:51;;;;;;;;;;;;;;;4.94;100.00;99581.47;5081611;28;19923;-83
2021/03/08 08:53:39;;;;;;;;;;;;;;;4.96;100.00;99584.66;5118055;28;20315;-82
2021/03/08 08:56:06;;;;;;;;;;;;;;;4.94;100.00;99567.63;5099783;28;20374;-82
2021/03/08 08:58:48;;;;;;;;;;;;;;;4.78;100.00;99572.53;5062745;28;20390;-82
2021/03/08 09:01:17;;;;;;;;;;;;;;;4.83;100.00;99574.97;5099099;27;19924;-83
2021/03/08 09:03:50;;;;;;;;;;;;;;;4.99;100.00;99561.78;5084019;27;19924;-83
2021/03/08 09:06:36;;;;;;;;;;;;;;;5.22;100.00;99576.34;5099552;28;19923;-83
2021/03/08 09:09:03;;;;;;;;;;;;;;;5.23;100.00;99571.56;5052969;28;19923;-84
2021/03/08 09:11:48;;;;;;;;;;;;;;;5.25;100.00;99575.59;5086519;28;19938;-78
2021/03/08 09:14:24;;;;;;;;;;;;;;;5.33;100.00;99559.84;5065205;28;19959;-79
2021/03/08 09:17:09;;;;;;;;;;;;;;;5.36;100.00;99559.88;5098172;28;19971;-78
2021/03/08 09:19:35;;;;;;;;;;;;;;;5.37;100.00;99555.94;5102459;28;20385;-79
2021/03/08 09:22:21;;;;;;;;;;;;;;;5.45;100.00;99538.22;5106909;28;19960;-78
2021/03/08 09:24:58;;;;;;;;;;;;;;;5.54;100.00;99538.72;5086768;28;19924;-78
2021/03/08 09:27:29;;;;;;;;;;;;;;;5.56;100.00;99541.09;5110189;28;20646;-81
2021/03/08 09:30:06;;;;;;;;;;;;;;;5.46;100.00;99516.84;5106376;28;19935;-78
2021/03/08 09:32:33;;;;;;;;;;;;;;;5.22;100.00;99537.56;5112946;28;19977;-83
2021/03/08 09:35:04;;;;;;;;;;;;;;;5.26;100.00;99538.38;5094860;28;20020;-78
2021/03/08 09:37:30;;;;;;;;;;;;;;;5.23;100.00;99539.13;5097648;28;19938;-77
2021/03/08 09:39:57;;;;;;;;;;;;;;;5.26;100.00;99555.00;5107091;28;19935;-77
2021/03/08 09:42:25;;;;;;;;;;;;;;;5.22;100.00;99540.31;5082572;28;19924;-77
2021/03/08 09:44:54;;;;;;;;;;;;;;;5.03;100.00;99550.72;5080398;28;19924;-78
2021/03/08 09:47:20;;;;;;;;;;;;;;;4.98;100.00;99570.44;5099718;28;19923;-77
2021/03/08 09:49:51;;;;;;;;;;;;;;;4.91;100.00;99560.06;5112263;28;19923;-77
2021/03/08 09:52:38;;;;;;;;;;;;;;;4.82;100.00;99572.56;5063286;28;19928;-78
2021/03/08 09:55:06;;;;;;;;;;;;;;;4.73;100.00;99570.09;5089806;28;19924;-81
2021/03/08 09:57:40;;;;;;;;;;;;;;;4.66;100.00;99569.19;5114461;28;19924;-88
2021/03/08 10:00:09;;;;;;;;;;;;;;;4.61;100.00;99572.25;5072708;28;19923;-84
2021/03/08 10:02:39;;;;;;;;;;;;;;;4.61;100.00;99567.53;5071799;28;19963;-90
2021/03/08 10:05:08;;;;;;;;;;;;;;;4.62;100.00;99571.09;5058927;28;20579;-92
2021/03/08 10:07:49;;;;;;;;;;;;;;;4.57;100.00;99574.97;5099268;28;19982;-90
2021/03/08 10:10:16;;;;;;;;;;;;;;;4.54;100.00;99567.44;5050740;28;20030;-91
2021/03/08 10:12:43;;;;;;;;;;;;;;;4.57;100.00;99566.69;5069608;28;20374;-92
2021/03/08 10:15:11;;;;;;;;;;;;;;;4.54;100.00;99556.34;5067564;28;19951;-91
2021/03/08 10:18:07;;;;;;;;;;;;;;;4.54;100.00;99572.16;5079081;28;20422;-79
2021/03/08 10:20:42;;;;;;;;;;;;;;;4.57;100.00;99566.69;5089580;28;19923;-86
2021/03/08 10:23:28;;;;;;;;;;;;;;;4.64;100.00;99560.44;5085615;28;19928;-78
2021/03/08 10:26:03;;;;;;;;;;;;;;;4.67;100.00;99568.81;5109780;28;19924;-79
2021/03/08 10:28:34;;;;;;;;;;;;;;;4.71;100.00;99550.28;5098021;28;20794;-79
2021/03/08 10:31:01;;;;;;;;;;;;;;;4.86;100.00;99578.97;5096387;28;20471;-78
2021/03/08 10:33:28;;;;;;;;;;;;;;;4.92;100.00;99560.88;5088585;28;19947;-80
2021/03/08 10:35:56;;;;;;;;;;;;;;;4.98;100.00;99576.75;5106222;28;19981;-78
2021/03/08 10:38:27;;;;;;;;;;;;;;;5.01;100.00;99587.09;5107012;28;19932;-78
2021/03/08 10:40:56;;;;;;;;;;;;;;;5.07;100.00;99582.84;5093232;28;19923;-77
2021/03/08 10:43:22;;;;;;;;;;;;;;;5.07;100.00;99571.75;5112048;28;19928;-78
2021/03/08 10:45:50;;;;;;;;;;;;;;;5.12;100.00;99574.19;5110857;28;19928;-75
2021/03/08 10:48:18;;;;;;;;;;;;;;;5.06;100.00;99572.94;5102341;28;19924;-76
2021/03/08 10:50:51;;;;;;;;;;;;;;;5.13;100.00;99570.28;5109476;28;19935;-77
2021/03/08 10:53:27;;;;;;;;;;;;;;;5.03;100.00;99565.38;5100022;28;20382;-79
2021/03/08 10:55:54;;;;;;;;;;;;;;;5.21;100.00;99569.19;5090174;28;19924;-79
2021/03/08 10:58:34;;;;;;;;;;;;;;;5.41;100.00;99567.88;5079174;28;20416;-76
2021/03/08 11:01:08;;;;;;;;;;;;;;;5.63;100.00;99578.00;5111043;28;19924;-76
2021/03/08 11:03:35;;;;;;;;;;;;;;;5.82;100.00;99579.84;5091172;28;20422;-77
2021/03/08 11:06:03;;;;;;;;;;;;;;;5.90;100.00;99572.41;5093931;28;20374;-76
2021/03/08 11:08:29;;;;;;;;;;;;;;;5.90;100.00;99581.53;5108376;28;20326;-76
2021/03/08 11:10:56;;;;;;;;;;;;;;;5.96;100.00;99580.00;5110794;28;19924;-77
2021/03/08 11:13:30;;;;;;;;;;;;;;;5.92;100.00;99581.16;5111003;28;20390;-78
2021/03/08 11:16:07;;;;;;;;;;;;;;;5.95;100.00;99574.84;5111101;28;20287;-76
2021/03/08 11:18:34;;;;;;;;;;;;;;;5.90;100.00;99566.84;5078929;28;19928;-77
2021/03/08 11:21:19;;;;;;;;;;;;;;;5.87;100.00;99556.53;5074802;28;19924;-76
2021/03/08 11:23:46;;;;;;;;;;;;;;;5.80;100.00;99548.09;5095365;28;19970;-75
2021/03/08 11:26:12;;;;;;;;;;;;;;;5.84;100.00;99551.75;5109690;28;19959;-75
2021/03/08 11:28:39;;;;;;;;;;;;;;;5.93;100.00;99546.69;5092924;28;19935;-79
2021/03/08 11:31:06;;;;;;;;;;;;;;;6.01;100.00;99551.13;5092111;28;20378;-76
2021/03/08 11:33:36;;;;;;;;;;;;;;;6.09;100.00;99541.72;5109990;28;19931;-76
2021/03/08 11:36:03;;;;;;;;;;;;;;;6.18;100.00;99539.41;5110362;28;19928;-76
2021/03/08 11:38:31;;;;;;;;;;;;;;;6.28;100.00;99539.50;5109412;28;19927;-76
2021/03/08 11:40:58;;;;;;;;;;;;;;;6.30;100.00;99539.13;5107453;28;19924;-78
2021/03/08 11:43:25;;;;;;;;;;;;;;;6.33;100.00;99535.56;5093862;28;20420;-78
2021/03/08 11:45:52;;;;;;;;;;;;;;;6.46;100.00;99539.63;5106744;28;19930;-78
2021/03/08 11:48:19;;;;;;;;;;;;;;;6.59;100.00;99535.34;5110686;28;19924;-79
2021/03/08 11:50:45;;;;;;;;;;;;;;;6.59;100.00;99533.38;5110407;28;19933;-78
2021/03/08 11:53:15;;;;;;;;;;;;;;;6.57;100.00;99534.97;5109564;28;19959;-81
2021/03/08 11:55:42;;;;;;;;;;;;;;;6.68;100.00;99513.63;5111033;28;19949;-80
2021/03/08 11:58:08;;;;;;;;;;;;;;;6.67;100.00;99529.50;5093834;28;19924;-78
2021/03/08 12:00:35;;;;;;;;;;;;;;;6.63;100.00;99522.31;5109994;28;19928;-75
2021/03/08 12:03:01;;;;;;;;;;;;;;;6.63;100.00;99516.75;5109885;28;19974;-75
2021/03/08 12:05:28;;;;;;;;;;;;;;;6.58;100.00;99525.44;5093555;28;20001;-79
2021/03/08 12:07:56;;;;;;;;;;;;;;;6.40;100.00;99528.09;5100127;28;19934;-80
2021/03/08 12:10:23;;;;;;;;;;;;;;;6.42;100.00;99522.94;5110499;28;19938;-78
2021/03/08 12:12:49;;;;;;;;;;;;;;;6.50;100.00;99523.78;5109637;28;20025;-78
2021/03/08 12:15:16;;;;;;;;;;;;;;;6.54;100.00;99521.84;5108772;28;20322;-77
2021/03/08 12:17:43;;;;;;;;;;;;;;;6.72;100.00;99525.56;5109204;28;19924;-92
2021/03/08 12:20:12;;;;;;;;;;;;;;;6.74;100.00;99535.06;5094053;28;19928;-82
2021/03/08 12:22:39;;;;;;;;;;;;;;;6.78;100.00;99540.66;5108438;28;19928;-82
2021/03/08 12:25:07;;;;;;;;;;;;;;;6.84;100.00;99523.25;5100221;28;20386;-83
2021/03/08 12:27:34;;;;;;;;;;;;;;;6.86;100.00;99533.97;5100708;28;19928;-84
2021/03/08 12:30:02;;;;;;;;;;;;;;;6.94;100.00;99535.59;5084262;28;19973;-82
2021/03/08 12:32:28;;;;;;;;;;;;;;;6.89;100.00;99541.53;5108918;28;20390;-82
2021/03/08 12:34:55;;;;;;;;;;;;;;;6.95;100.00;99532.44;5078366;28;19931;-81
2021/03/08 12:37:22;;;;;;;;;;;;;;;7.13;100.00;99535.31;5095707;28;20026;-79
2021/03/08 12:39:48;;;;;;;;;;;;;;;7.29;100.00;99527.44;5098772;28;19984;-85
2021/03/08 12:42:15;;;;;;;;;;;;;;;7.25;100.00;99519.09;5092575;28;19924;-80
2021/03/08 12:44:41;;;;;;;;;;;;;;;7.34;100.00;99519.53;5093146;28;19931;-82
2021/03/08 12:47:08;;;;;;;;;;;;;;;7.38;100.00;99516.75;5107593;28;19924;-83
2021/03/08 12:49:34;;;;;;;;;;;;;;;7.30;100.00;99509.56;5087678;28;19923;-82
2021/03/08 12:52:01;;;;;;;;;;;;;;;7.32;100.00;99505.22;5107098;28;19967;-80
2021/03/08 12:54:28;;;;;;;;;;;;;;;7.25;100.00;99507.97;5080685;28;19932;-81
2021/03/08 12:56:54;;;;;;;;;;;;;;;7.39;100.00;99493.34;5072855;28;19931;-84
2021/03/08 12:59:22;;;;;;;;;;;;;;;7.55;100.00;99487.41;5051220;28;19931;-79
2021/03/08 13:01:48;;;;;;;;;;;;;;;7.72;100.00;99484.69;5066421;28;19955;-79